createdAt,value
2023-01-27T00:01:39.248Z,39.6
2023-01-27T00:06:41.405Z,38.9
2023-01-27T00:11:43.719Z,65.4
2023-01-27T00:16:44.246Z,35.9
2023-01-27T00:21:46.678Z,37.2
2023-01-27T00:26:49.065Z,38.1
2023-01-27T00:31:51.396Z,36.8
2023-01-27T00:36:54.188Z,35.4
2023-01-27T00:41:56.587Z,37
2023-01-27T00:46:58.716Z,39.2
2023-01-27T00:52:00.944Z,36.3
2023-01-27T00:57:03.187Z,36.8
2023-01-27T01:02:05.306Z,34.4
2023-01-27T01:07:07.567Z,33.9
2023-01-27T01:12:09.831Z,32.4
2023-01-27T01:17:11.973Z,32.8
2023-01-27T01:22:14.456Z,31.3
2023-01-27T01:27:16.997Z,30.8
2023-01-27T01:32:19.151Z,32.5
2023-01-27T01:37:21.286Z,29.2
2023-01-27T01:42:23.435Z,26.8
2023-01-27T01:47:25.646Z,27.7
2023-01-27T01:52:27.793Z,28
2023-01-27T01:57:29.945Z,24
2023-01-27T02:02:32.161Z,24.6
2023-01-27T02:07:35.489Z,24.2
2023-01-27T02:12:37.649Z,22.5
2023-01-27T02:17:40.094Z,23.1
2023-01-27T02:22:42.947Z,22.3
2023-01-27T02:27:45.190Z,24.3
2023-01-27T02:32:47.363Z,21.4
2023-01-27T02:37:49.781Z,22.6
2023-01-27T02:42:51.959Z,22.3
2023-01-27T02:47:54.164Z,22.5
2023-01-27T02:52:56.444Z,21.1
2023-01-27T02:57:58.526Z,20.4
2023-01-27T03:03:00.757Z,19.4
2023-01-27T03:08:02.971Z,19.5
2023-01-27T03:13:05.175Z,19.3
2023-01-27T03:18:07.533Z,21
2023-01-27T03:23:10.056Z,19
2023-01-27T03:28:12.424Z,20.3
2023-01-27T03:33:14.781Z,18.8
2023-01-27T03:38:16.840Z,19.2
2023-01-27T03:43:19.037Z,18.4
2023-01-27T03:48:21.292Z,19.9
2023-01-27T03:53:23.355Z,19.1
2023-01-27T03:58:25.581Z,18.6
2023-01-27T04:03:27.679Z,18.8
2023-01-27T04:08:29.752Z,17.5
2023-01-27T04:13:31.863Z,16.5
2023-01-27T04:18:34.167Z,17.8
2023-01-27T04:23:36.485Z,17.2
2023-01-27T04:28:44.046Z,17.5
2023-01-27T04:33:46.989Z,19.8
2023-01-27T04:38:49.174Z,17.7
2023-01-27T04:43:51.344Z,18
2023-01-27T04:48:53.635Z,17.8
2023-01-27T04:53:55.746Z,17.3
2023-01-27T04:58:57.940Z,17.1
2023-01-27T05:04:00.164Z,16.3
2023-01-27T05:09:02.265Z,16.5
2023-01-27T05:14:03.258Z,16.2
2023-01-27T05:19:05.377Z,17.2
2023-01-27T05:24:08.176Z,16.8
2023-01-27T05:29:11.059Z,18
2023-01-27T05:34:13.078Z,15.2
2023-01-27T05:39:15.126Z,17.8
2023-01-27T05:44:17.102Z,18.6
2023-01-27T05:49:19.117Z,18.6
2023-01-27T05:54:21.252Z,17.6
2023-01-27T05:59:23.274Z,18.4
2023-01-27T06:04:25.271Z,20.4
2023-01-27T06:09:27.746Z,20.4
2023-01-27T06:14:30.959Z,21.4
2023-01-27T06:19:33.006Z,18.8
2023-01-27T06:24:36.303Z,17.8
2023-01-27T06:29:38.780Z,18.8
2023-01-27T06:34:41.026Z,17.2
2023-01-27T06:39:43.560Z,18.8
2023-01-27T06:44:45.837Z,16.4
2023-01-27T06:49:51.255Z,18
2023-01-27T06:54:53.496Z,17.2
2023-01-27T06:59:56.222Z,16.9
2023-01-27T07:04:58.382Z,25.6
2023-01-27T07:10:00.690Z,16.6
2023-01-27T07:15:05.119Z,17.6
2023-01-27T07:20:07.625Z,17.1
2023-01-27T07:25:09.987Z,17
2023-01-27T07:30:15.197Z,31.9
2023-01-27T07:35:18.028Z,15.9
2023-01-27T07:40:20.231Z,17.1
2023-01-27T07:45:22.438Z,16.5
2023-01-27T07:50:25.024Z,15.9
2023-01-27T07:55:27.179Z,16.7
2023-01-27T08:00:29.479Z,15.4
2023-01-27T08:05:31.884Z,15.5
2023-01-27T08:10:34.126Z,15.2
2023-01-27T08:15:36.483Z,16.8
2023-01-27T08:20:38.791Z,17.5
2023-01-27T08:25:41.462Z,15.6
2023-01-27T08:30:43.672Z,15.7
2023-01-27T08:35:45.843Z,17.3
2023-01-27T08:40:47.911Z,16.3
2023-01-27T08:45:50.188Z,16.1
2023-01-27T08:50:52.426Z,16.9
2023-01-27T08:55:54.598Z,15.6
2023-01-27T09:00:57.390Z,18.6
2023-01-27T09:05:59.938Z,18.2
2023-01-27T09:11:02.114Z,16.5
2023-01-27T09:16:04.517Z,16
2023-01-27T09:21:06.908Z,17.3
2023-01-27T09:26:12.338Z,16
2023-01-27T09:31:14.580Z,16.5
2023-01-27T09:36:17.339Z,16.1
2023-01-27T09:41:19.392Z,16.8
2023-01-27T09:46:21.525Z,15.8
2023-01-27T09:51:24.081Z,17.1
2023-01-27T09:56:26.896Z,17.4
2023-01-27T10:01:29.204Z,16.3
2023-01-27T10:06:33.227Z,15.1
2023-01-27T10:11:37.143Z,13.6
2023-01-27T10:16:39.360Z,14.3
2023-01-27T10:21:41.914Z,14.6
2023-01-27T10:26:44.665Z,15
2023-01-27T10:31:46.948Z,15
2023-01-27T10:36:49.823Z,17.1
2023-01-27T10:41:51.960Z,13.7
2023-01-27T10:46:54.209Z,12.6
2023-01-27T10:51:56.897Z,13.7
2023-01-27T10:56:59.217Z,13.6
2023-01-27T11:02:01.418Z,13.4
2023-01-27T11:07:03.846Z,12.4
2023-01-27T11:12:06.223Z,10.9
2023-01-27T11:17:08.555Z,11.3
2023-01-27T11:22:11.020Z,11.2
2023-01-27T11:27:13.413Z,10.5
2023-01-27T11:32:15.510Z,9.6
2023-01-27T11:37:18.189Z,10.8
2023-01-27T11:42:21.084Z,9.9
2023-01-27T11:47:23.436Z,17.1
2023-01-27T11:52:23.950Z,10.4
2023-01-27T11:57:28.388Z,8.8
2023-01-27T12:02:30.823Z,11.5
2023-01-27T12:07:33.144Z,9.9
2023-01-27T12:12:35.453Z,10.5
2023-01-27T12:17:37.706Z,9.6
2023-01-27T12:22:44.195Z,9.4
2023-01-27T12:27:46.888Z,9.5
2023-01-27T12:32:47.852Z,8.5
2023-01-27T12:37:49.995Z,8.5
2023-01-27T12:42:52.368Z,9.1
2023-01-27T12:47:54.437Z,8.1
2023-01-27T12:52:56.781Z,8.2
2023-01-27T12:57:58.945Z,8.1
2023-01-27T13:03:01.134Z,8.1
2023-01-27T13:08:03.605Z,8.3
2023-01-27T13:13:05.785Z,9.3
2023-01-27T13:18:07.977Z,8.5
2023-01-27T13:23:10.023Z,9.5
2023-01-27T13:28:12.277Z,8.8
2023-01-27T13:33:14.741Z,11
2023-01-27T13:38:17.337Z,10.2
2023-01-27T13:43:19.952Z,9.2
2023-01-27T13:48:22.558Z,10.4
2023-01-27T13:53:24.857Z,10
2023-01-27T13:58:27.134Z,10.8
2023-01-27T14:03:29.785Z,10.4
2023-01-27T14:08:32.276Z,10.3
2023-01-27T14:13:34.418Z,9.9
2023-01-27T14:18:36.508Z,10.1
2023-01-27T14:23:38.575Z,11.1
2023-01-27T14:28:41.213Z,11.1
2023-01-27T14:33:44.027Z,10.2
2023-01-27T14:38:48.241Z,13
2023-01-27T14:43:50.791Z,12.8
2023-01-27T14:48:59.994Z,13.6
2023-01-27T14:54:03.076Z,10.2
2023-01-27T14:59:05.567Z,10.1
2023-01-27T15:04:07.831Z,13
2023-01-27T15:09:10.944Z,11.2
2023-01-27T15:14:13.931Z,11.5
2023-01-27T15:19:16.381Z,12
2023-01-27T15:24:18.952Z,14.1
2023-01-27T15:29:21.704Z,12.5
2023-01-27T15:34:23.727Z,13.4
2023-01-27T15:39:39.584Z,11.7
2023-01-27T15:44:33.271Z,11.5
2023-01-27T15:49:35.404Z,19.8
2023-01-27T15:54:36.035Z,25.3
2023-01-27T15:59:39.017Z,11.4
2023-01-27T16:04:39.320Z,11.3
2023-01-27T16:09:43.413Z,11.9
2023-01-27T16:14:44.059Z,12.6
2023-01-27T16:19:46.375Z,11.8
2023-01-27T16:24:48.750Z,10.9
2023-01-27T16:29:51.590Z,13.5
2023-01-27T16:34:53.803Z,12.6
2023-01-27T16:39:56.202Z,13.4
2023-01-27T16:44:58.500Z,13.1
2023-01-27T16:50:00.941Z,14.1
2023-01-27T16:55:03.620Z,14.1
2023-01-27T17:00:06.567Z,15.6
2023-01-27T17:05:08.832Z,29.5
2023-01-27T17:10:13.472Z,13.1
2023-01-27T17:15:16.384Z,12.2
2023-01-27T17:20:18.979Z,12.9
2023-01-27T17:25:21.292Z,13.3
2023-01-27T17:30:24.076Z,15.5
2023-01-27T17:35:26.447Z,14.5
2023-01-27T17:40:28.610Z,12.1
2023-01-27T17:45:30.961Z,12.4
2023-01-27T17:50:33.663Z,13.5
2023-01-27T17:55:35.935Z,13.1
2023-01-27T18:00:38.772Z,12.6
2023-01-27T18:05:40.887Z,14.8
2023-01-27T18:10:43.222Z,31.9
2023-01-27T18:15:45.459Z,13.7
2023-01-27T18:20:47.934Z,13.5
2023-01-27T18:25:51.512Z,13.3
2023-01-27T18:30:56.069Z,14.2
2023-01-27T18:35:59.709Z,14.1
2023-01-27T18:41:02.189Z,13
2023-01-27T18:46:04.908Z,12.8
2023-01-27T18:51:07.176Z,13.5
2023-01-27T18:56:09.310Z,14.7
2023-01-27T19:01:11.495Z,13.7
2023-01-27T19:06:14.429Z,14.1
2023-01-27T19:11:19.776Z,13.8
2023-01-27T19:16:22.049Z,19.7
2023-01-27T19:21:26.622Z,14.8
2023-01-27T19:26:31.852Z,16
2023-01-27T19:31:34.263Z,13
2023-01-27T19:36:35.018Z,13.3
2023-01-27T19:41:37.217Z,13.2
2023-01-27T19:46:40.266Z,13.5
2023-01-27T19:51:42.567Z,13.7
2023-01-27T19:56:45.171Z,13.2
2023-01-27T20:01:46.427Z,14.9
2023-01-27T20:06:48.457Z,14.3
2023-01-27T20:11:51.055Z,13.7
2023-01-27T20:16:53.547Z,14.1
2023-01-27T20:21:56.054Z,13.5
2023-01-27T20:26:58.174Z,14
2023-01-27T20:32:00.520Z,15.1
2023-01-27T20:37:03.779Z,14
2023-01-27T20:42:06.156Z,13.9
2023-01-27T20:47:08.440Z,12.9
2023-01-27T20:52:10.410Z,14.6
2023-01-27T20:57:12.385Z,15.1
2023-01-27T21:02:14.370Z,14.3
2023-01-27T21:07:17.288Z,14.6
2023-01-27T21:12:20.213Z,24.6
2023-01-27T21:17:22.424Z,17.3
2023-01-27T21:22:24.660Z,15.4
2023-01-27T21:27:27.042Z,15.1
2023-01-27T21:32:29.707Z,15.6
2023-01-27T21:37:31.896Z,14.8
2023-01-27T21:42:42.784Z,15.5
2023-01-27T21:47:44.957Z,15.5
2023-01-27T21:52:47.505Z,15.6
2023-01-27T21:57:49.747Z,38.6
2023-01-27T22:02:51.861Z,18.3
2023-01-27T22:07:54.776Z,16.5
2023-01-27T22:13:01.822Z,16.1
2023-01-27T22:18:04.356Z,15.6
2023-01-27T22:23:06.422Z,18.3
2023-01-27T22:28:08.509Z,17
2023-01-27T22:33:10.733Z,15.8
2023-01-27T22:38:12.741Z,17.1
2023-01-27T22:43:14.859Z,17.6
2023-01-27T22:48:16.932Z,16.5
2023-01-27T22:53:18.964Z,22.8
2023-01-27T22:58:21.067Z,19.2
2023-01-27T23:03:23.171Z,19.3
2023-01-27T23:08:25.440Z,17.5
2023-01-27T23:13:27.423Z,19.2
2023-01-27T23:18:29.868Z,17.6
2023-01-27T23:23:32.466Z,17.4
2023-01-27T23:28:34.475Z,17.9
2023-01-27T23:33:36.768Z,20.9
2023-01-27T23:38:38.887Z,18
2023-01-27T23:43:41.138Z,18
2023-01-27T23:48:43.365Z,18
2023-01-27T23:53:45.507Z,19.4
2023-01-27T23:58:47.531Z,19.1
